createdAt,value
2023-01-30T00:00:44.709Z,100920.00
2023-01-30T00:03:47.405Z,100945.06
2023-01-30T00:06:49.781Z,100945.06
2023-01-30T00:09:52.336Z,100943.44
2023-01-30T00:12:54.702Z,100940.75
2023-01-30T00:15:57.364Z,100948.41
2023-01-30T00:18:59.711Z,100908.47
2023-01-30T00:22:02.347Z,100902.25
2023-01-30T00:25:05.309Z,100904.75
2023-01-30T00:28:08.045Z,100904.81
2023-01-30T00:31:10.487Z,100930.94
2023-01-30T00:34:13.236Z,100929.25
2023-01-30T00:37:15.768Z,100859.94
2023-01-30T00:40:18.815Z,100929.31
2023-01-30T00:43:40.273Z,100895.25
2023-01-30T00:47:01.591Z,100897.94
2023-01-30T00:50:04.302Z,100890.03
2023-01-30T00:53:07.104Z,100874.13
2023-01-30T00:56:09.649Z,100918.59
2023-01-30T00:59:12.311Z,100881.84
2023-01-30T01:02:14.660Z,100911.06
2023-01-30T01:05:17.547Z,100872.97
2023-01-30T01:08:20.207Z,100877.41
2023-01-30T01:11:25.909Z,100907.25
2023-01-30T01:14:29.868Z,100899.88
2023-01-30T01:17:32.523Z,100863.66
2023-01-30T01:20:34.949Z,100891.03
2023-01-30T01:23:39.051Z,100890.03
2023-01-30T01:26:42.242Z,100878.56
2023-01-30T01:29:46.643Z,100883.00
2023-01-30T01:32:49.061Z,100882.03
2023-01-30T01:35:55.153Z,100881.00
2023-01-30T01:38:58.329Z,100845.66
2023-01-30T01:42:00.960Z,100873.00
2023-01-30T01:45:10.617Z,100836.28
2023-01-30T01:48:19.205Z,100845.31
2023-01-30T01:51:27.787Z,100834.00
2023-01-30T01:54:39.929Z,100855.94
2023-01-30T01:57:54.033Z,100847.22
2023-01-30T02:01:00.063Z,100820.03
2023-01-30T02:04:06.251Z,100817.91
2023-01-30T02:07:09.560Z,100805.69
2023-01-30T02:10:18.921Z,100827.22
2023-01-30T02:13:23.086Z,100811.88
2023-01-30T02:16:25.472Z,100804.59
2023-01-30T02:19:49.088Z,100773.50
2023-01-30T02:23:14.955Z,100772.75
2023-01-30T02:27:08.077Z,100795.69
2023-01-30T02:30:36.132Z,100796.84
2023-01-30T02:33:50.707Z,100800.59
2023-01-30T02:37:32.631Z,100763.25
2023-01-30T02:40:48.412Z,100794.28
2023-01-30T02:44:32.397Z,100785.44
2023-01-30T02:47:45.221Z,100779.28
2023-01-30T02:50:57.135Z,100742.28
2023-01-30T02:54:00.437Z,100759.41
2023-01-30T02:57:02.925Z,100761.12
2023-01-30T03:00:07.725Z,100716.78
2023-01-30T03:03:11.115Z,100716.13
2023-01-30T03:06:40.002Z,100748.22
2023-01-30T03:10:07.572Z,100737.00
2023-01-30T03:13:16.617Z,100745.09
2023-01-30T03:16:26.072Z,100750.56
2023-01-30T03:19:31.570Z,100733.22
2023-01-30T03:22:35.094Z,100749.53
2023-01-30T03:25:40.619Z,100690.75
2023-01-30T03:28:43.947Z,100705.41
2023-01-30T03:31:46.637Z,100719.41
2023-01-30T03:34:49.073Z,100737.16
2023-01-30T03:37:52.194Z,100705.66
2023-01-30T03:40:54.641Z,100641.69
2023-01-30T03:43:57.364Z,100699.59
2023-01-30T03:47:00.232Z,100687.97
2023-01-30T03:50:03.773Z,100707.94
2023-01-30T03:53:06.639Z,100719.16
2023-01-30T03:56:09.905Z,100691.34
2023-01-30T03:59:12.615Z,100717.41
2023-01-30T04:02:19.648Z,100683.75
2023-01-30T04:05:23.674Z,100714.91
2023-01-30T04:08:27.481Z,100701.41
2023-01-30T04:11:30.734Z,100716.28
2023-01-30T04:14:33.292Z,100708.75
2023-01-30T04:17:39.304Z,100659.19
2023-01-30T04:20:43.851Z,100663.44
2023-01-30T04:23:47.732Z,100682.25
2023-01-30T04:26:50.076Z,100690.31
2023-01-30T04:29:52.725Z,100664.63
2023-01-30T04:32:55.138Z,100658.47
2023-01-30T04:35:59.816Z,100649.03
2023-01-30T04:39:02.782Z,100679.38
2023-01-30T04:42:05.995Z,100640.66
2023-01-30T04:45:10.897Z,100660.66
2023-01-30T04:48:14.299Z,100630.25
2023-01-30T04:51:17.741Z,100657.25
2023-01-30T04:54:20.486Z,100657.31
2023-01-30T04:57:22.820Z,100653.09
2023-01-30T05:00:26.071Z,100659.91
2023-01-30T05:03:29.753Z,100654.53
2023-01-30T05:06:33.417Z,100647.16
2023-01-30T05:09:35.704Z,100654.34
2023-01-30T05:12:38.598Z,100648.16
2023-01-30T05:15:41.124Z,100645.56
2023-01-30T05:18:43.917Z,100616.00
2023-01-30T05:21:46.253Z,100637.28
2023-01-30T05:24:48.857Z,100652.00
2023-01-30T05:27:51.140Z,100618.81
2023-01-30T05:30:53.908Z,100633.31
2023-01-30T05:33:56.276Z,100646.00
2023-01-30T05:36:58.885Z,100639.72
2023-01-30T05:40:01.233Z,100627.28
2023-01-30T05:43:03.888Z,100641.03
2023-01-30T05:46:07.446Z,100596.94
2023-01-30T05:49:10.042Z,100620.97
2023-01-30T05:52:12.300Z,100627.13
2023-01-30T05:55:15.213Z,100625.34
2023-01-30T05:58:17.598Z,100634.00
2023-01-30T06:01:21.111Z,100606.19
2023-01-30T06:04:23.892Z,100614.03
2023-01-30T06:07:26.439Z,100631.06
2023-01-30T06:10:29.033Z,100608.97
2023-01-30T06:13:31.986Z,100619.94
2023-01-30T06:16:34.574Z,100612.88
2023-01-30T06:19:36.876Z,100617.78
2023-01-30T06:22:39.470Z,100639.84
2023-01-30T06:25:48.945Z,100628.72
2023-01-30T06:28:51.508Z,100633.31
2023-01-30T06:31:53.846Z,100599.31
2023-01-30T06:34:56.828Z,100641.19
2023-01-30T06:37:59.213Z,100614.75
2023-01-30T06:41:02.040Z,100639.53
2023-01-30T06:44:04.541Z,100593.66
2023-01-30T06:47:07.403Z,100623.34
2023-01-30T06:50:10.130Z,100596.13
2023-01-30T06:53:12.757Z,100588.19
2023-01-30T06:56:15.135Z,100615.28
2023-01-30T06:59:17.725Z,100607.56
2023-01-30T07:02:20.050Z,100604.16
2023-01-30T07:05:22.699Z,100587.69
2023-01-30T07:08:25.059Z,100584.06
2023-01-30T07:11:28.168Z,100609.06
2023-01-30T07:14:30.538Z,100613.16
2023-01-30T07:17:33.528Z,100609.75
2023-01-30T07:20:36.051Z,100590.88
2023-01-30T07:23:38.661Z,100577.47
2023-01-30T07:26:41.011Z,100603.75
2023-01-30T07:29:43.661Z,100582.97
2023-01-30T07:32:54.269Z,100597.22
2023-01-30T07:35:56.960Z,100597.59
2023-01-30T07:39:01.610Z,100599.44
2023-01-30T07:42:04.944Z,100560.19
2023-01-30T07:45:07.800Z,100566.50
2023-01-30T07:48:15.557Z,100565.06
2023-01-30T07:51:17.911Z,100596.53
2023-01-30T07:54:20.671Z,100573.41
2023-01-30T07:57:23.087Z,100583.28
2023-01-30T08:00:25.969Z,100534.41
2023-01-30T08:03:28.652Z,100592.63
2023-01-30T08:06:31.140Z,100584.59
2023-01-30T08:09:33.898Z,100587.44
2023-01-30T08:12:36.277Z,100577.41
2023-01-30T08:15:38.969Z,100498.41
2023-01-30T08:18:41.424Z,100547.62
2023-01-30T08:21:43.998Z,100511.31
2023-01-30T08:24:46.791Z,100494.09
2023-01-30T08:27:49.748Z,100507.72
2023-01-30T08:30:53.441Z,100508.31
2023-01-30T08:33:56.023Z,100481.13
2023-01-30T08:36:58.306Z,100520.78
2023-01-30T08:40:03.635Z,100516.44
2023-01-30T08:43:06.409Z,100492.06
2023-01-30T08:46:09.156Z,100514.91
2023-01-30T08:49:11.912Z,100520.09
2023-01-30T08:52:14.587Z,100482.91
2023-01-30T08:55:18.024Z,100498.69
2023-01-30T08:58:22.017Z,100475.59
2023-01-30T09:01:24.370Z,100467.69
2023-01-30T09:04:30.769Z,100507.28
2023-01-30T09:07:33.119Z,100476.56
2023-01-30T09:10:36.559Z,100503.41
2023-01-30T09:13:43.492Z,100499.06
2023-01-30T09:16:48.239Z,100466.81
2023-01-30T09:19:50.656Z,100497.50
2023-01-30T09:22:53.581Z,100492.62
2023-01-30T09:25:56.013Z,100480.16
2023-01-30T09:28:58.598Z,100487.22
2023-01-30T09:32:01.044Z,100488.84
2023-01-30T09:35:04.595Z,100476.94
2023-01-30T09:38:06.942Z,100478.28
2023-01-30T09:41:28.445Z,100454.97
2023-01-30T09:44:58.706Z,100430.25
2023-01-30T09:48:04.441Z,100459.53
2023-01-30T09:51:51.325Z,100450.03
2023-01-30T09:55:02.041Z,100432.44
2023-01-30T09:58:04.839Z,100391.19
2023-01-30T10:01:15.393Z,100428.88
2023-01-30T10:04:36.353Z,100388.19
2023-01-30T10:07:52.476Z,100415.56
2023-01-30T10:11:33.990Z,100379.22
2023-01-30T10:14:46.828Z,100408.03
2023-01-30T10:18:08.158Z,100392.31
2023-01-30T10:21:21.111Z,100394.78
2023-01-30T10:24:40.823Z,100398.59
2023-01-30T10:27:52.539Z,100384.78
2023-01-30T10:31:10.325Z,100346.50
2023-01-30T10:34:37.623Z,100346.00
2023-01-30T10:38:01.089Z,100365.22
2023-01-30T10:41:36.263Z,100350.00
2023-01-30T10:44:44.070Z,100339.44
2023-01-30T10:47:47.885Z,100316.41
2023-01-30T10:50:56.609Z,100329.44
2023-01-30T10:54:13.523Z,100285.50
2023-01-30T10:57:23.958Z,100274.69
2023-01-30T11:00:37.402Z,100264.91
2023-01-30T11:03:55.780Z,100282.81
2023-01-30T11:07:01.997Z,100240.00
2023-01-30T11:10:15.819Z,100265.16
2023-01-30T11:13:30.696Z,100265.16
2023-01-30T11:16:43.412Z,100263.00
2023-01-30T11:19:53.420Z,100250.22
2023-01-30T11:23:08.725Z,100217.72
2023-01-30T11:26:19.300Z,100223.09
2023-01-30T11:29:33.709Z,100215.22
2023-01-30T11:32:37.240Z,100200.81
2023-01-30T11:35:42.865Z,100221.34
2023-01-30T11:39:23.136Z,100218.59
2023-01-30T11:42:31.741Z,100190.88
2023-01-30T11:45:38.569Z,100189.66
2023-01-30T11:49:46.069Z,100192.91
2023-01-30T11:52:38.083Z,100187.44
2023-01-30T11:55:43.185Z,100164.22
2023-01-30T11:59:00.739Z,100178.00
2023-01-30T12:02:40.476Z,100185.00
2023-01-30T12:05:46.786Z,100178.28
2023-01-30T12:08:53.006Z,100162.56
2023-01-30T12:11:55.733Z,100173.94
2023-01-30T12:15:22.009Z,100148.16
2023-01-30T12:18:38.421Z,100132.94
2023-01-30T12:21:57.285Z,100138.87
2023-01-30T12:25:03.420Z,100165.44
2023-01-30T12:28:35.048Z,100130.25
2023-01-30T12:31:46.390Z,100127.19
2023-01-30T12:34:50.840Z,100123.94
2023-01-30T12:38:20.438Z,100097.91
2023-01-30T12:41:57.010Z,100113.72
2023-01-30T12:45:34.862Z,100092.09
2023-01-30T12:49:10.896Z,100098.69
2023-01-30T12:52:33.365Z,100094.66
2023-01-30T12:55:55.627Z,100105.47
2023-01-30T12:59:13.368Z,100104.63
2023-01-30T13:02:27.111Z,100114.69
2023-01-30T13:05:41.800Z,100104.34
2023-01-30T13:08:58.210Z,100072.34
2023-01-30T13:12:26.102Z,100077.22
2023-01-30T13:15:59.015Z,100050.97
2023-01-30T13:19:06.177Z,100081.69
2023-01-30T13:22:27.397Z,100052.44
2023-01-30T13:25:38.894Z,100045.94
2023-01-30T13:28:50.442Z,100028.53
2023-01-30T13:31:58.139Z,100033.97
2023-01-30T13:35:04.760Z,100036.13
2023-01-30T13:38:10.503Z,100048.56
2023-01-30T13:41:15.012Z,100045.31
2023-01-30T13:44:23.028Z,100025.31
2023-01-30T13:47:31.416Z,100048.00
2023-01-30T13:50:59.017Z,100056.19
2023-01-30T13:54:04.363Z,100044.97
2023-01-30T13:57:22.164Z,100039.81
2023-01-30T14:00:33.303Z,100038.66
2023-01-30T14:03:36.170Z,100033.25
2023-01-30T14:06:39.486Z,100025.81
2023-01-30T14:10:02.084Z,100023.28
2023-01-30T14:13:06.383Z,100019.50
2023-01-30T14:16:09.474Z,99991.88
2023-01-30T14:19:24.057Z,100032.94
2023-01-30T14:22:31.121Z,100026.50
2023-01-30T14:25:43.445Z,100026.56
2023-01-30T14:28:47.212Z,100021.69
2023-01-30T14:31:51.003Z,100001.22
2023-01-30T14:35:02.861Z,100013.16
2023-01-30T14:38:14.207Z,100041.00
2023-01-30T14:41:26.941Z,100050.19
2023-01-30T14:44:55.276Z,100018.00
2023-01-30T14:48:33.511Z,100046.34
2023-01-30T14:51:49.675Z,100047.66
2023-01-30T14:54:52.337Z,100022.53
2023-01-30T14:58:01.604Z,100015.25
2023-01-30T15:01:04.953Z,100013.22
2023-01-30T15:04:12.250Z,100026.75
2023-01-30T15:07:20.154Z,100017.66
2023-01-30T15:10:56.544Z,100040.63
2023-01-30T15:14:11.970Z,100013.06
2023-01-30T15:17:37.651Z,100002.72
2023-01-30T15:20:52.406Z,100031.69
2023-01-30T15:24:18.950Z,100049.84
2023-01-30T15:27:31.856Z,100042.25
2023-01-30T15:30:47.386Z,100037.09
2023-01-30T15:33:52.216Z,100033.28
2023-01-30T15:36:54.674Z,100024.63
2023-01-30T15:40:20.435Z,100033.56
2023-01-30T15:43:29.001Z,100005.41
2023-01-30T15:46:43.459Z,100052.75
2023-01-30T15:49:57.164Z,100053.87
2023-01-30T15:53:00.122Z,100038.72
2023-01-30T15:56:07.094Z,100026.28
2023-01-30T15:59:34.827Z,100033.91
2023-01-30T16:02:37.697Z,100041.06
2023-01-30T16:05:48.026Z,100019.53
2023-01-30T16:09:20.428Z,100060.16
2023-01-30T16:12:28.259Z,100072.34
2023-01-30T16:15:30.771Z,100059.62
2023-01-30T16:18:49.700Z,100060.53
2023-01-30T16:21:55.251Z,100054.31
2023-01-30T16:24:57.957Z,100059.75
2023-01-30T16:28:00.630Z,100044.66
2023-01-30T16:31:06.919Z,100055.78
2023-01-30T16:34:30.999Z,100073.63
2023-01-30T16:37:33.654Z,100078.19
2023-01-30T16:40:46.401Z,100055.97
2023-01-30T16:44:08.273Z,100089.22
2023-01-30T16:47:22.401Z,100066.44
2023-01-30T16:50:25.417Z,100078.66
2023-01-30T16:53:30.707Z,100070.06
2023-01-30T16:56:34.707Z,100065.78
2023-01-30T16:59:37.917Z,100070.13
2023-01-30T17:02:42.552Z,100056.03
2023-01-30T17:05:47.909Z,100057.16
2023-01-30T17:08:54.281Z,100074.16
2023-01-30T17:11:56.766Z,100076.91
2023-01-30T17:15:14.204Z,100071.19
2023-01-30T17:18:17.265Z,100044.13
2023-01-30T17:21:22.998Z,100045.13
2023-01-30T17:24:26.212Z,100044.03
2023-01-30T17:27:30.509Z,100032.63
2023-01-30T17:30:32.738Z,100029.84
2023-01-30T17:33:35.302Z,100051.94
2023-01-30T17:36:39.124Z,100017.75
2023-01-30T17:39:41.845Z,100040.66
2023-01-30T17:42:44.899Z,100015.50
2023-01-30T17:45:48.251Z,100031.94
2023-01-30T17:48:51.836Z,100036.41
2023-01-30T17:51:55.612Z,100025.84
2023-01-30T17:54:57.927Z,100050.91
2023-01-30T17:58:01.475Z,100019.22
2023-01-30T18:01:06.528Z,100033.41
2023-01-30T18:04:09.564Z,100028.53
2023-01-30T18:07:14.641Z,100035.50
2023-01-30T18:10:19.991Z,100054.44
2023-01-30T18:13:22.618Z,100027.06
2023-01-30T18:16:28.827Z,100054.31
2023-01-30T18:19:31.846Z,100031.56
2023-01-30T18:22:34.701Z,100030.41
2023-01-30T18:25:37.324Z,100055.75
2023-01-30T18:28:40.280Z,100029.50
2023-01-30T18:31:43.082Z,100026.78
2023-01-30T18:34:46.135Z,100061.03
2023-01-30T18:37:49.887Z,100045.34
2023-01-30T18:40:52.615Z,100071.84
2023-01-30T18:43:56.968Z,100075.06
2023-01-30T18:46:59.971Z,100069.12
2023-01-30T18:50:02.401Z,100074.50
2023-01-30T18:53:05.119Z,100034.00
2023-01-30T18:56:09.277Z,100074.50
2023-01-30T18:59:11.923Z,100045.56
2023-01-30T19:02:14.377Z,100066.03
2023-01-30T19:05:17.121Z,100042.56
2023-01-30T19:08:19.672Z,100063.84
2023-01-30T19:11:41.432Z,100058.69
2023-01-30T19:14:44.821Z,100043.00
2023-01-30T19:17:47.485Z,100047.88
2023-01-30T19:20:50.113Z,100060.75
2023-01-30T19:23:53.452Z,100059.66
2023-01-30T19:26:56.097Z,100054.28
2023-01-30T19:29:58.963Z,100077.59
2023-01-30T19:33:01.413Z,100065.09
2023-01-30T19:36:11.545Z,100065.09
2023-01-30T19:39:14.125Z,100038.03
2023-01-30T19:42:16.786Z,100049.34
2023-01-30T19:45:19.905Z,100065.53
2023-01-30T19:48:22.543Z,100068.78
2023-01-30T19:51:30.517Z,100064.59
2023-01-30T19:54:34.400Z,100050.84
2023-01-30T19:57:36.810Z,100079.19
2023-01-30T20:00:39.438Z,100073.94
2023-01-30T20:03:42.786Z,100041.19
2023-01-30T20:06:45.976Z,100066.31
2023-01-30T20:09:48.722Z,100039.00
2023-01-30T20:12:51.108Z,100064.09
2023-01-30T20:15:54.765Z,100038.41
2023-01-30T20:18:59.054Z,100012.59
2023-01-30T20:22:07.275Z,100042.59
2023-01-30T20:25:10.357Z,100049.31
2023-01-30T20:28:12.977Z,100031.44
2023-01-30T20:31:20.948Z,100024.94
2023-01-30T20:34:23.881Z,100017.31
2023-01-30T20:37:26.557Z,100051.06
2023-01-30T20:40:29.177Z,100040.47
2023-01-30T20:43:34.404Z,100043.19
2023-01-30T20:46:41.559Z,100032.44
2023-01-30T20:49:44.638Z,100040.47
2023-01-30T20:52:51.467Z,100019.97
2023-01-30T20:55:57.248Z,100038.56
2023-01-30T20:59:01.222Z,100031.72
2023-01-30T21:02:03.524Z,100031.28
2023-01-30T21:05:07.069Z,100034.50
2023-01-30T21:08:09.460Z,100048.66
2023-01-30T21:11:17.265Z,100043.19
2023-01-30T21:14:19.599Z,100016.19
2023-01-30T21:17:22.168Z,100018.91
2023-01-30T21:20:24.523Z,100027.53
2023-01-30T21:23:28.970Z,100026.41
2023-01-30T21:26:33.385Z,100060.47
2023-01-30T21:29:36.882Z,100066.72
2023-01-30T21:32:39.256Z,100081.37
2023-01-30T21:35:42.189Z,100082.97
2023-01-30T21:39:03.087Z,100046.00
2023-01-30T21:42:27.096Z,100046.50
2023-01-30T21:45:29.424Z,100061.37
2023-01-30T21:48:32.025Z,100044.97
2023-01-30T21:51:34.811Z,100060.03
2023-01-30T21:54:37.800Z,100053.63
2023-01-30T21:57:40.120Z,100065.56
2023-01-30T22:00:42.951Z,100062.34
2023-01-30T22:03:46.176Z,100029.88
2023-01-30T22:06:48.563Z,100062.94
2023-01-30T22:09:51.112Z,100065.94
2023-01-30T22:12:53.685Z,100038.62
2023-01-30T22:16:00.141Z,100063.50
2023-01-30T22:19:04.772Z,100033.56
2023-01-30T22:22:07.426Z,100062.12
2023-01-30T22:25:09.987Z,100059.91
2023-01-30T22:28:12.613Z,100032.59
2023-01-30T22:31:18.154Z,100053.63
2023-01-30T22:34:21.562Z,100050.84
2023-01-30T22:37:23.878Z,100029.81
2023-01-30T22:40:26.489Z,100027.06
2023-01-30T22:43:30.629Z,100025.41
2023-01-30T22:46:36.453Z,100018.91
2023-01-30T22:49:39.645Z,100047.81
2023-01-30T22:52:42.240Z,100022.75
2023-01-30T22:55:44.552Z,100020.53
2023-01-30T22:58:48.486Z,100027.88
2023-01-30T23:01:51.100Z,100025.97
2023-01-30T23:04:54.363Z,100026.28
2023-01-30T23:07:57.377Z,100006.34
2023-01-30T23:11:15.585Z,100020.81
2023-01-30T23:14:18.205Z,99994.94
2023-01-30T23:17:39.588Z,99993.59
2023-01-30T23:20:41.899Z,99984.78
2023-01-30T23:23:45.441Z,100025.06
2023-01-30T23:26:50.987Z,99988.28
2023-01-30T23:29:53.628Z,99994.78
2023-01-30T23:32:55.937Z,100015.22
2023-01-30T23:36:03.157Z,99988.22
2023-01-30T23:39:05.512Z,100022.28
2023-01-30T23:42:08.163Z,99994.37
2023-01-30T23:45:10.959Z,100036.41
2023-01-30T23:48:13.637Z,100002.63
2023-01-30T23:51:17.807Z,100031.03
2023-01-30T23:54:20.484Z,100007.06
2023-01-30T23:57:22.787Z,100024.06
